Time;durP1;ratioP1;P1;durP2;ratioP2;P2;SDS_P1;SDS_P2;PMS_P1;PMS_P2;Temp;Humidity;BMP_temperature;BMP_pressure;BME280_temperature;BME280_humidity;BME280_pressure;Samples;Min_cycle;Max_cycle;Signal;HPM_P1;HPM_P2
2020/12/18 00:01:06;;;;;;;28.53;25.83;;;;;;;;;;5000163;28;20189;-88
2020/12/18 00:03:38;;;;;;;27.40;24.80;;;;;;;;;;5000504;28;20212;-88
2020/12/18 00:06:09;;;;;;;30.13;25.97;;;;;;;;;;4998986;28;20182;-88
2020/12/18 00:08:41;;;;;;;26.47;23.93;;;;;;;;;;4999938;28;20185;-88
2020/12/18 00:11:14;;;;;;;27.63;23.90;;;;;;;;;;4999024;28;20747;-87
2020/12/18 00:13:47;;;;;;;27.10;24.13;;;;;;;;;;4998934;28;20597;-89
2020/12/18 00:16:26;;;;;;;27.10;24.27;;;;;;;;;;5000099;28;20185;-88
2020/12/18 00:19:04;;;;;;;27.20;24.63;;;;;;;;;;4999001;28;20205;-87
2020/12/18 00:21:34;;;;;;;27.20;24.57;;;;;;;;;;4999399;28;20271;-88
2020/12/18 00:24:03;;;;;;;31.53;27.30;;;;;;;;;;5000662;28;20197;-88
2020/12/18 00:26:40;;;;;;;29.03;26.33;;;;;;;;;;5001395;28;20227;-88
2020/12/18 00:29:11;;;;;;;26.63;24.20;;;;;;;;;;4999979;28;20264;-88
2020/12/18 00:31:40;;;;;;;30.33;27.27;;;;;;;;;;5001192;28;20213;-88
2020/12/18 00:34:13;;;;;;;28.93;25.97;;;;;;;;;;4999626;28;20236;-88
2020/12/18 00:36:43;;;;;;;31.03;26.97;;;;;;;;;;5000393;28;20166;-88
2020/12/18 00:39:12;;;;;;;30.83;27.10;;;;;;;;;;5000619;28;20239;-88
2020/12/18 00:41:42;;;;;;;30.80;27.63;;;;;;;;;;5001700;28;20176;-88
2020/12/18 00:44:14;;;;;;;29.60;26.70;;;;;;;;;;5001530;28;20208;-88
2020/12/18 00:46:42;;;;;;;33.97;29.27;;;;;;;;;;5001626;28;20181;-87
2020/12/18 00:49:19;;;;;;;31.27;28.23;;;;;;;;;;4998464;28;20192;-88
2020/12/18 00:51:45;;;;;;;32.07;28.13;;;;;;;;;;4999030;28;20184;-88
2020/12/18 00:54:13;;;;;;;31.37;28.03;;;;;;;;;;5000231;28;20244;-89
2020/12/18 00:56:50;;;;;;;29.60;26.70;;;;;;;;;;5000233;28;20188;-88
2020/12/18 00:59:18;;;;;;;29.83;26.60;;;;;;;;;;4997282;28;20212;-88
2020/12/18 01:01:48;;;;;;;29.63;26.50;;;;;;;;;;4997610;28;20184;-88
2020/12/18 01:04:21;;;;;;;29.83;26.73;;;;;;;;;;4999092;28;20205;-88
2020/12/18 01:06:53;;;;;;;29.17;26.13;;;;;;;;;;5000461;28;20181;-88
2020/12/18 01:09:23;;;;;;;30.47;26.37;;;;;;;;;;4999802;28;20200;-88
2020/12/18 01:11:53;;;;;;;29.67;26.90;;;;;;;;;;5002314;28;20597;-88
2020/12/18 01:14:30;;;;;;;28.43;25.60;;;;;;;;;;5001933;28;20219;-88
2020/12/18 01:17:01;;;;;;;28.03;24.07;;;;;;;;;;5000630;28;20201;-88
2020/12/18 01:19:35;;;;;;;28.17;25.30;;;;;;;;;;4999677;28;20793;-88
2020/12/18 01:22:02;;;;;;;27.80;25.33;;;;;;;;;;5000744;28;20177;-88
2020/12/18 01:24:28;;;;;;;28.50;25.50;;;;;;;;;;5002150;28;20201;-87
2020/12/18 01:27:03;;;;;;;30.03;26.80;;;;;;;;;;4999615;28;20236;-88
2020/12/18 01:29:36;;;;;;;29.67;26.43;;;;;;;;;;5001586;28;20277;-88
2020/12/18 01:32:02;;;;;;;29.73;26.80;;;;;;;;;;4998641;28;20200;-89
2020/12/18 01:34:34;;;;;;;28.33;25.50;;;;;;;;;;4996136;28;20205;-87
2020/12/18 01:37:00;;;;;;;28.00;25.40;;;;;;;;;;4997551;28;20188;-88
2020/12/18 01:39:26;;;;;;;29.53;26.63;;;;;;;;;;5000214;28;20205;-88
2020/12/18 01:41:53;;;;;;;29.23;26.40;;;;;;;;;;4998779;28;20177;-88
2020/12/18 01:44:25;;;;;;;29.13;26.27;;;;;;;;;;4997978;28;20193;-87
2020/12/18 01:46:58;;;;;;;27.93;25.30;;;;;;;;;;4994394;28;20260;-87
2020/12/18 01:49:27;;;;;;;26.10;23.57;;;;;;;;;;4996020;28;20189;-87
2020/12/18 01:51:54;;;;;;;27.93;25.17;;;;;;;;;;4994724;28;20238;-87
2020/12/18 01:54:23;;;;;;;29.07;26.30;;;;;;;;;;4994260;28;20760;-87
2020/12/18 01:56:53;;;;;;;28.27;25.37;;;;;;;;;;4994472;28;20267;-87
2020/12/18 01:59:19;;;;;;;27.53;25.00;;;;;;;;;;4995220;28;20291;-87
2020/12/18 02:01:51;;;;;;;27.87;25.07;;;;;;;;;;4993870;28;20181;-87
2020/12/18 02:04:24;;;;;;;30.13;27.23;;;;;;;;;;4993968;28;20288;-87
2020/12/18 02:06:55;;;;;;;27.93;24.90;;;;;;;;;;4994563;28;20175;-87
2020/12/18 02:09:29;;;;;;;25.53;23.47;;;;;;;;;;4994039;28;20608;-87
2020/12/18 02:11:58;;;;;;;32.00;28.80;;;;;;;;;;4994659;28;20173;-87
2020/12/18 02:14:33;;;;;;;27.53;25.03;;;;;;;;;;4995429;28;20247;-87
2020/12/18 02:16:59;;;;;;;26.20;23.77;;;;;;;;;;4994034;28;20169;-87
2020/12/18 02:19:35;;;;;;;26.87;23.87;;;;;;;;;;4995437;28;20209;-87
2020/12/18 02:22:18;;;;;;;25.00;23.03;;;;;;;;;;4996121;28;20608;-86
2020/12/18 02:25:00;;;;;;;23.17;21.00;;;;;;;;;;4998301;28;20221;-87
2020/12/18 02:27:33;;;;;;;25.83;23.60;;;;;;;;;;4997118;28;20232;-86
2020/12/18 02:30:10;;;;;;;28.17;25.40;;;;;;;;;;4996903;28;20181;-87
2020/12/18 02:32:39;;;;;;;27.37;24.57;;;;;;;;;;4996975;28;20192;-86
2020/12/18 02:35:11;;;;;;;26.63;22.97;;;;;;;;;;4996905;28;20601;-87
2020/12/18 02:37:48;;;;;;;25.30;22.67;;;;;;;;;;4997440;28;20213;-87
2020/12/18 02:40:14;;;;;;;26.20;23.33;;;;;;;;;;4997195;28;20209;-87
2020/12/18 02:42:48;;;;;;;25.07;22.87;;;;;;;;;;4996754;28;20193;-87
2020/12/18 02:45:18;;;;;;;26.63;23.90;;;;;;;;;;4996427;28;20179;-86
2020/12/18 02:47:47;;;;;;;28.53;25.80;;;;;;;;;;4997039;28;20185;-87
2020/12/18 02:50:16;;;;;;;29.23;26.23;;;;;;;;;;4996671;28;20178;-87
2020/12/18 02:52:48;;;;;;;27.23;24.77;;;;;;;;;;4997309;28;20189;-87
2020/12/18 02:55:16;;;;;;;27.77;25.27;;;;;;;;;;4996926;28;20184;-87
2020/12/18 02:57:48;;;;;;;28.97;26.03;;;;;;;;;;4996357;28;20212;-86
2020/12/18 03:00:18;;;;;;;26.93;24.47;;;;;;;;;;4997804;28;20193;-87
2020/12/18 03:02:51;;;;;;;27.57;25.03;;;;;;;;;;4996172;28;20188;-87
2020/12/18 03:05:24;;;;;;;26.87;24.37;;;;;;;;;;4996391;28;20174;-87
2020/12/18 03:07:59;;;;;;;26.27;24.10;;;;;;;;;;4996105;28;20174;-87
2020/12/18 03:10:28;;;;;;;26.10;23.60;;;;;;;;;;4998058;28;20181;-87
2020/12/18 03:13:00;;;;;;;25.47;22.80;;;;;;;;;;4996394;28;20185;-86
2020/12/18 03:15:31;;;;;;;25.07;22.80;;;;;;;;;;4996650;28;20196;-87
2020/12/18 03:18:02;;;;;;;30.13;23.57;;;;;;;;;;4996547;28;20189;-87
2020/12/18 03:20:29;;;;;;;25.03;22.67;;;;;;;;;;4996538;28;20689;-87
2020/12/18 03:23:01;;;;;;;23.07;20.97;;;;;;;;;;4996293;28;20224;-86
2020/12/18 03:25:30;;;;;;;26.00;23.83;;;;;;;;;;4995291;28;20184;-86
2020/12/18 03:28:06;;;;;;;25.97;23.87;;;;;;;;;;4994309;28;20276;-86
2020/12/18 03:30:38;;;;;;;27.83;24.37;;;;;;;;;;4994755;28;20173;-86
2020/12/18 03:33:10;;;;;;;26.70;23.03;;;;;;;;;;4994164;28;20187;-86
2020/12/18 03:35:41;;;;;;;25.20;22.90;;;;;;;;;;4994200;28;20645;-86
2020/12/18 03:38:14;;;;;;;26.07;23.53;;;;;;;;;;4994553;28;20258;-86
2020/12/18 03:40:41;;;;;;;26.67;24.20;;;;;;;;;;4994343;28;20660;-86
2020/12/18 03:43:12;;;;;;;21.67;19.70;;;;;;;;;;4995305;28;20205;-86
2020/12/18 03:45:42;;;;;;;22.80;20.60;;;;;;;;;;4994047;28;20180;-86
2020/12/18 03:48:11;;;;;;;25.03;22.83;;;;;;;;;;4994187;28;20565;-86
2020/12/18 03:50:41;;;;;;;27.10;24.40;;;;;;;;;;4993950;28;20185;-86
2020/12/18 03:53:14;;;;;;;25.90;23.67;;;;;;;;;;4993788;28;20681;-87
2020/12/18 03:55:47;;;;;;;26.80;24.43;;;;;;;;;;4993893;28;20653;-86
2020/12/18 03:58:20;;;;;;;27.63;24.70;;;;;;;;;;4993883;28;20184;-86
2020/12/18 04:00:51;;;;;;;26.30;23.67;;;;;;;;;;4993756;28;20658;-86
2020/12/18 04:03:25;;;;;;;28.90;26.00;;;;;;;;;;4993690;28;20555;-86
2020/12/18 04:05:55;;;;;;;28.77;26.23;;;;;;;;;;4993714;28;20176;-86
2020/12/18 04:08:25;;;;;;;28.97;26.07;;;;;;;;;;4994870;28;20174;-86
2020/12/18 04:10:55;;;;;;;28.97;26.13;;;;;;;;;;4993681;28;20653;-86
2020/12/18 04:13:26;;;;;;;28.33;25.47;;;;;;;;;;4993484;28;20299;-86
2020/12/18 04:15:58;;;;;;;28.87;25.80;;;;;;;;;;4993570;28;20169;-86
2020/12/18 04:18:30;;;;;;;26.97;24.60;;;;;;;;;;4995056;28;20248;-86
2020/12/18 04:21:02;;;;;;;28.80;26.03;;;;;;;;;;4994645;28;20172;-86
2020/12/18 04:23:33;;;;;;;33.07;27.23;;;;;;;;;;4994676;28;20197;-86
2020/12/18 04:26:04;;;;;;;30.27;27.13;;;;;;;;;;4993592;28;20173;-86
2020/12/18 04:28:38;;;;;;;30.10;27.33;;;;;;;;;;4994550;28;20185;-86
2020/12/18 04:31:04;;;;;;;31.47;28.77;;;;;;;;;;4994494;28;20173;-86
2020/12/18 04:33:35;;;;;;;31.27;28.47;;;;;;;;;;4993231;28;20629;-86
2020/12/18 04:36:05;;;;;;;32.17;29.20;;;;;;;;;;4993776;28;20580;-86
2020/12/18 04:38:36;;;;;;;33.67;30.43;;;;;;;;;;4993007;28;20554;-86
2020/12/18 04:41:05;;;;;;;32.93;30.00;;;;;;;;;;4993119;28;20187;-86
2020/12/18 04:43:36;;;;;;;33.53;30.50;;;;;;;;;;4992534;28;20247;-86
2020/12/18 04:46:07;;;;;;;34.10;31.00;;;;;;;;;;4992860;28;20530;-86
2020/12/18 04:48:39;;;;;;;34.87;31.43;;;;;;;;;;4993127;28;20180;-86
2020/12/18 04:51:12;;;;;;;34.40;31.10;;;;;;;;;;4992987;28;20591;-86
2020/12/18 04:53:48;;;;;;;34.03;31.13;;;;;;;;;;4993131;28;20192;-86
2020/12/18 04:56:22;;;;;;;34.93;31.60;;;;;;;;;;4993791;28;20594;-86
2020/12/18 04:58:54;;;;;;;37.47;33.43;;;;;;;;;;4994103;28;20300;-86
2020/12/18 05:01:29;;;;;;;36.33;32.57;;;;;;;;;;4994109;28;20253;-86
2020/12/18 05:04:01;;;;;;;35.67;32.03;;;;;;;;;;4993985;28;20196;-86
2020/12/18 05:06:35;;;;;;;35.23;31.87;;;;;;;;;;4992651;28;20204;-86
2020/12/18 05:09:02;;;;;;;36.53;32.97;;;;;;;;;;4992854;28;20646;-86
2020/12/18 05:11:35;;;;;;;37.00;33.33;;;;;;;;;;4993914;28;20230;-87
2020/12/18 05:14:09;;;;;;;35.03;31.90;;;;;;;;;;4993814;28;20211;-86
2020/12/18 05:16:40;;;;;;;35.07;32.00;;;;;;;;;;4994174;28;20183;-86
2020/12/18 05:19:10;;;;;;;35.63;32.40;;;;;;;;;;4992501;28;20202;-87
2020/12/18 05:21:41;;;;;;;37.17;33.67;;;;;;;;;;4992647;28;20291;-86
2020/12/18 05:24:14;;;;;;;36.77;33.70;;;;;;;;;;4992506;28;20202;-86
2020/12/18 05:26:47;;;;;;;36.07;32.87;;;;;;;;;;4993775;28;20196;-87
2020/12/18 05:29:18;;;;;;;36.03;32.80;;;;;;;;;;4993940;28;20173;-87
2020/12/18 05:31:50;;;;;;;37.40;33.90;;;;;;;;;;4992584;28;20555;-87
2020/12/18 05:34:25;;;;;;;35.77;32.13;;;;;;;;;;4992483;28;20241;-87
2020/12/18 05:36:57;;;;;;;34.80;31.93;;;;;;;;;;4993802;28;20171;-87
2020/12/18 05:39:30;;;;;;;35.63;32.30;;;;;;;;;;4993307;28;20196;-86
2020/12/18 05:42:10;;;;;;;34.07;31.23;;;;;;;;;;4992422;28;20621;-87
2020/12/18 05:44:43;;;;;;;34.53;31.37;;;;;;;;;;4992522;28;20200;-86
2020/12/18 05:47:14;;;;;;;34.60;30.83;;;;;;;;;;4993903;28;20170;-86
2020/12/18 05:49:48;;;;;;;33.40;30.50;;;;;;;;;;4993650;28;20172;-87
2020/12/18 05:52:21;;;;;;;33.57;30.80;;;;;;;;;;4992347;28;20633;-86
2020/12/18 05:54:51;;;;;;;34.60;31.33;;;;;;;;;;4993434;28;20202;-86
2020/12/18 05:57:25;;;;;;;33.27;30.30;;;;;;;;;;4997574;28;20184;-87
2020/12/18 05:59:54;;;;;;;35.33;32.13;;;;;;;;;;4996062;28;20208;-86
2020/12/18 06:02:25;;;;;;;35.43;32.13;;;;;;;;;;4996335;28;20176;-86
2020/12/18 06:04:54;;;;;;;35.47;31.90;;;;;;;;;;4995985;28;20668;-86
2020/12/18 06:07:25;;;;;;;36.63;33.47;;;;;;;;;;4995905;28;20180;-86
2020/12/18 06:09:56;;;;;;;34.73;31.60;;;;;;;;;;4995924;28;20178;-86
2020/12/18 06:12:27;;;;;;;35.40;32.20;;;;;;;;;;4995874;28;20179;-86
2020/12/18 06:14:59;;;;;;;35.83;32.23;;;;;;;;;;4995572;28;20242;-87
2020/12/18 06:17:31;;;;;;;35.20;31.67;;;;;;;;;;4997294;28;20183;-86
2020/12/18 06:20:05;;;;;;;34.37;31.13;;;;;;;;;;4996113;28;20205;-87
2020/12/18 06:22:31;;;;;;;33.30;30.23;;;;;;;;;;4996902;28;20176;-86
2020/12/18 06:25:01;;;;;;;34.27;29.47;;;;;;;;;;4995825;28;20193;-86
2020/12/18 06:27:31;;;;;;;33.93;30.60;;;;;;;;;;4995442;28;20189;-86
2020/12/18 06:30:11;;;;;;;33.57;30.07;;;;;;;;;;4995500;28;20182;-86
2020/12/18 06:32:48;;;;;;;35.47;31.73;;;;;;;;;;4995486;28;20652;-86
2020/12/18 06:35:30;;;;;;;33.47;30.43;;;;;;;;;;4995777;28;20183;-87
2020/12/18 06:38:26;;;;;;;33.20;29.83;;;;;;;;;;4995284;28;20187;-86
2020/12/18 06:40:58;;;;;;;39.20;32.03;;;;;;;;;;4992010;28;20196;-87
2020/12/18 06:43:44;;;;;;;34.73;31.23;;;;;;;;;;4996529;28;20198;-86
2020/12/18 06:46:21;;;;;;;35.37;31.57;;;;;;;;;;4995527;28;20172;-86
2020/12/18 06:48:51;;;;;;;33.87;30.47;;;;;;;;;;4995266;28;20195;-86
2020/12/18 06:51:28;;;;;;;35.10;31.43;;;;;;;;;;4996629;28;20268;-86
2020/12/18 06:54:10;;;;;;;34.97;30.30;;;;;;;;;;4995086;28;20579;-86
2020/12/18 06:56:36;;;;;;;34.23;30.53;;;;;;;;;;4994964;28;20179;-86
2020/12/18 06:59:18;;;;;;;31.80;28.67;;;;;;;;;;4994977;28;20255;-86
2020/12/18 07:01:48;;;;;;;34.47;29.50;;;;;;;;;;4996624;28;20175;-87
2020/12/18 07:04:25;;;;;;;33.07;29.57;;;;;;;;;;4996307;28;20193;-86
2020/12/18 07:06:53;;;;;;;33.00;29.70;;;;;;;;;;4995213;28;20174;-86
2020/12/18 07:09:26;;;;;;;31.47;27.97;;;;;;;;;;4994713;28;20639;-86
2020/12/18 07:11:52;;;;;;;30.67;27.17;;;;;;;;;;4996056;28;20224;-86
2020/12/18 07:14:31;;;;;;;31.77;28.20;;;;;;;;;;4995790;28;20247;-86
2020/12/18 07:17:10;;;;;;;30.57;27.50;;;;;;;;;;4995886;28;20181;-86
2020/12/18 07:19:43;;;;;;;32.53;29.17;;;;;;;;;;4994646;28;20202;-86
2020/12/18 07:22:17;;;;;;;31.80;28.37;;;;;;;;;;4994597;28;20185;-86
2020/12/18 07:24:50;;;;;;;29.60;26.47;;;;;;;;;;4994587;28;20194;-86
2020/12/18 07:27:21;;;;;;;31.57;28.30;;;;;;;;;;4996033;28;20268;-86
2020/12/18 07:29:55;;;;;;;33.20;29.70;;;;;;;;;;4994469;28;20178;-86
2020/12/18 07:32:27;;;;;;;37.30;30.50;;;;;;;;;;4994358;28;20259;-86
2020/12/18 07:35:05;;;;;;;35.30;30.83;;;;;;;;;;4994264;28;20221;-86
2020/12/18 07:37:39;;;;;;;35.63;31.73;;;;;;;;;;4994357;28;20725;-86
2020/12/18 07:40:14;;;;;;;32.50;28.60;;;;;;;;;;4994456;28;20670;-86
2020/12/18 07:42:48;;;;;;;34.23;30.53;;;;;;;;;;4994239;28;20185;-86
2020/12/18 07:45:18;;;;;;;35.00;31.30;;;;;;;;;;4994111;28;20174;-86
2020/12/18 07:47:49;;;;;;;37.43;32.60;;;;;;;;;;4994001;28;20178;-87
2020/12/18 07:50:18;;;;;;;36.17;30.97;;;;;;;;;;4994164;28;20178;-87
2020/12/18 07:52:45;;;;;;;36.70;32.60;;;;;;;;;;4994124;28;20178;-87
2020/12/18 07:55:14;;;;;;;36.87;31.57;;;;;;;;;;4994122;28;20198;-87
2020/12/18 07:57:41;;;;;;;37.47;33.57;;;;;;;;;;4993885;28;20189;-88
2020/12/18 08:00:13;;;;;;;34.97;31.67;;;;;;;;;;4993799;28;20257;-87
2020/12/18 08:02:47;;;;;;;36.67;30.63;;;;;;;;;;4994019;28;20181;-87
2020/12/18 08:05:13;;;;;;;36.30;32.60;;;;;;;;;;4994672;28;20170;-87
2020/12/18 08:07:44;;;;;;;37.40;32.27;;;;;;;;;;4993812;28;20170;-87
2020/12/18 08:10:19;;;;;;;34.00;30.73;;;;;;;;;;4994975;28;20575;-87
2020/12/18 08:12:49;;;;;;;34.93;31.37;;;;;;;;;;4994083;28;20186;-86
2020/12/18 08:15:16;;;;;;;34.63;31.13;;;;;;;;;;4993730;28;20186;-87
2020/12/18 08:17:44;;;;;;;34.00;30.43;;;;;;;;;;4994184;28;20543;-87
2020/12/18 08:20:14;;;;;;;33.43;30.07;;;;;;;;;;4995457;28;20198;-87
2020/12/18 08:22:46;;;;;;;34.40;30.80;;;;;;;;;;4993863;28;20185;-87
2020/12/18 08:25:18;;;;;;;33.80;30.20;;;;;;;;;;4993878;28;20706;-87
2020/12/18 08:27:51;;;;;;;33.30;29.93;;;;;;;;;;4993976;28;20202;-87
2020/12/18 08:30:22;;;;;;;35.60;31.97;;;;;;;;;;4993778;28;20230;-87
2020/12/18 08:32:56;;;;;;;38.67;30.93;;;;;;;;;;4994838;28;20174;-87
2020/12/18 08:35:25;;;;;;;35.10;31.23;;;;;;;;;;4993967;28;20185;-87
2020/12/18 08:37:56;;;;;;;33.77;30.33;;;;;;;;;;4993654;28;20239;-87
2020/12/18 08:40:26;;;;;;;32.57;29.17;;;;;;;;;;4993659;28;20340;-87
2020/12/18 08:42:58;;;;;;;32.27;28.57;;;;;;;;;;4993762;28;20700;-87
2020/12/18 08:45:25;;;;;;;34.10;30.40;;;;;;;;;;4994043;28;20170;-87
2020/12/18 08:47:52;;;;;;;33.77;30.30;;;;;;;;;;4993526;28;20184;-87
2020/12/18 08:50:21;;;;;;;28.63;26.03;;;;;;;;;;4993993;28;20185;-87
2020/12/18 08:52:49;;;;;;;32.87;29.57;;;;;;;;;;4993725;28;20669;-88
2020/12/18 08:55:19;;;;;;;32.07;28.80;;;;;;;;;;4993671;28;20185;-87
2020/12/18 08:57:49;;;;;;;30.47;27.47;;;;;;;;;;4993849;28;20534;-87
2020/12/18 09:00:21;;;;;;;31.63;28.27;;;;;;;;;;4994916;28;20194;-88
2020/12/18 09:02:51;;;;;;;30.80;27.93;;;;;;;;;;4994685;28;20635;-87
2020/12/18 09:05:22;;;;;;;29.67;26.87;;;;;;;;;;4993348;28;20205;-87
2020/12/18 09:07:53;;;;;;;30.93;28.10;;;;;;;;;;4993486;28;20184;-87
2020/12/18 09:10:38;;;;;;;30.37;27.53;;;;;;;;;;4993399;28;20231;-88
2020/12/18 09:13:16;;;;;;;30.00;27.33;;;;;;;;;;4993144;28;20265;-87
2020/12/18 09:15:56;;;;;;;29.50;26.67;;;;;;;;;;4995379;28;20187;-87
2020/12/18 09:18:28;;;;;;;28.30;26.00;;;;;;;;;;4993328;28;20195;-87
2020/12/18 09:21:08;;;;;;;28.33;26.00;;;;;;;;;;4993374;28;20175;-87
2020/12/18 09:23:41;;;;;;;27.70;25.17;;;;;;;;;;4993210;28;20201;-87
2020/12/18 09:26:10;;;;;;;28.60;25.53;;;;;;;;;;5092242;23;20228;-89
2020/12/18 09:28:44;;;;;;;28.40;25.80;;;;;;;;;;4989739;28;20208;-90
2020/12/18 09:31:18;;;;;;;25.00;23.20;;;;;;;;;;4992282;28;20172;-90
2020/12/18 09:33:48;;;;;;;29.13;26.37;;;;;;;;;;4994080;28;20209;-89
2020/12/18 09:36:19;;;;;;;30.80;27.80;;;;;;;;;;4994722;28;20201;-90
2020/12/18 09:38:48;;;;;;;35.13;32.53;;;;;;;;;;4977688;28;20264;-89
2020/12/18 09:41:22;;;;;;;41.17;38.00;;;;;;;;;;4977269;28;20600;-90
2020/12/18 09:43:54;;;;;;;44.57;41.53;;;;;;;;;;4977943;28;20261;-90
2020/12/18 09:46:31;;;;;;;46.50;43.50;;;;;;;;;;4978757;28;20269;-90
2020/12/18 09:49:02;;;;;;;49.50;45.53;;;;;;;;;;4978207;28;20172;-90
2020/12/18 09:51:36;;;;;;;49.20;45.57;;;;;;;;;;4977212;28;20661;-91
2020/12/18 09:54:08;;;;;;;48.20;44.57;;;;;;;;;;4977204;28;20655;-91
2020/12/18 09:56:44;;;;;;;47.43;44.10;;;;;;;;;;4977365;28;20288;-90
2020/12/18 09:59:15;;;;;;;47.63;44.03;;;;;;;;;;4977202;28;20201;-90
2020/12/18 10:01:51;;;;;;;48.87;45.33;;;;;;;;;;4976979;28;20243;-90
2020/12/18 10:04:22;;;;;;;48.97;45.60;;;;;;;;;;4977002;28;20177;-90
2020/12/18 10:06:54;;;;;;;48.87;45.13;;;;;;;;;;4978007;28;20668;-90
2020/12/18 10:09:21;;;;;;;47.17;43.93;;;;;;;;;;4976929;28;20209;-90
2020/12/18 10:11:48;;;;;;;47.17;43.60;;;;;;;;;;4976904;28;20562;-90
2020/12/18 10:14:17;;;;;;;45.07;41.80;;;;;;;;;;4977143;28;20181;-90
2020/12/18 10:16:48;;;;;;;42.77;40.03;;;;;;;;;;4976790;28;20205;-91
2020/12/18 10:19:15;;;;;;;43.47;40.63;;;;;;;;;;4976869;28;20206;-91
2020/12/18 10:21:44;;;;;;;44.43;40.90;;;;;;;;;;4976860;28;20237;-91
2020/12/18 10:24:18;;;;;;;44.27;41.57;;;;;;;;;;4978101;28;20272;-91
2020/12/18 10:26:48;;;;;;;39.50;37.10;;;;;;;;;;4976690;28;20623;-90
2020/12/18 10:29:21;;;;;;;38.63;36.07;;;;;;;;;;4976688;28;20185;-90
2020/12/18 10:32:00;;;;;;;39.00;36.60;;;;;;;;;;4978369;28;20189;-90
2020/12/18 10:34:27;;;;;;;37.90;35.43;;;;;;;;;;4977154;28;20757;-90
2020/12/18 10:36:59;;;;;;;35.63;32.87;;;;;;;;;;4978009;28;20262;-91
2020/12/18 10:39:27;;;;;;;31.10;28.83;;;;;;;;;;4976425;28;20209;-89
2020/12/18 10:42:05;;;;;;;30.70;28.20;;;;;;;;;;4974942;28;20173;-89
2020/12/18 10:44:32;;;;;;;33.27;30.83;;;;;;;;;;4976134;28;20173;-89
2020/12/18 10:47:01;;;;;;;29.00;26.70;;;;;;;;;;4975796;28;20193;-88
2020/12/18 10:49:35;;;;;;;26.60;24.83;;;;;;;;;;4977250;28;20253;-89
2020/12/18 10:52:06;;;;;;;29.37;26.87;;;;;;;;;;4976854;28;20186;-89
2020/12/18 10:54:38;;;;;;;28.67;26.40;;;;;;;;;;4977500;28;20207;-91
2020/12/18 10:57:10;;;;;;;26.73;24.83;;;;;;;;;;4977006;28;20743;-91
2020/12/18 10:59:43;;;;;;;28.73;26.37;;;;;;;;;;4976141;28;20555;-91
2020/12/18 11:02:14;;;;;;;22.00;20.17;;;;;;;;;;4976616;28;20203;-91
2020/12/18 11:04:48;;;;;;;20.60;19.10;;;;;;;;;;4976206;28;20202;-91
2020/12/18 11:07:18;;;;;;;21.37;19.77;;;;;;;;;;4976167;28;20202;-91
2020/12/18 11:09:50;;;;;;;22.00;19.77;;;;;;;;;;4977378;28;20202;-90
2020/12/18 11:12:21;;;;;;;20.70;19.10;;;;;;;;;;4975753;28;20182;-91
2020/12/18 11:14:54;;;;;;;18.83;17.53;;;;;;;;;;4976789;28;20270;-90
2020/12/18 11:17:27;;;;;;;20.00;18.60;;;;;;;;;;4975868;28;20194;-91
2020/12/18 11:20:00;;;;;;;19.17;17.67;;;;;;;;;;4975447;28;20206;-90
2020/12/18 11:22:26;;;;;;;16.83;15.40;;;;;;;;;;4975353;28;20175;-91
2020/12/18 11:24:55;;;;;;;16.53;14.83;;;;;;;;;;4975808;28;20206;-89
2020/12/18 11:27:28;;;;;;;17.20;15.50;;;;;;;;;;4975245;28;20215;-91
2020/12/18 11:30:00;;;;;;;14.80;13.50;;;;;;;;;;4976477;28;20551;-90
2020/12/18 11:32:32;;;;;;;15.93;14.53;;;;;;;;;;4976972;28;20266;-91
2020/12/18 11:35:04;;;;;;;17.13;15.83;;;;;;;;;;4975972;28;20233;-92
2020/12/18 11:37:35;;;;;;;13.37;12.13;;;;;;;;;;4975630;28;20285;-89
2020/12/18 11:40:08;;;;;;;13.87;12.77;;;;;;;;;;4974882;28;20203;-90
2020/12/18 11:42:38;;;;;;;12.90;11.63;;;;;;;;;;4974945;28;20179;-90
2020/12/18 11:45:09;;;;;;;19.10;13.83;;;;;;;;;;4976531;28;20171;-91
2020/12/18 11:47:41;;;;;;;13.17;12.10;;;;;;;;;;4975513;28;20195;-90
2020/12/18 11:50:11;;;;;;;14.60;13.40;;;;;;;;;;4974739;28;20269;-90
2020/12/18 11:52:44;;;;;;;14.70;13.27;;;;;;;;;;4974588;28;20186;-91
2020/12/18 11:55:14;;;;;;;16.50;15.30;;;;;;;;;;4975067;28;20522;-90
2020/12/18 11:57:49;;;;;;;16.57;15.07;;;;;;;;;;4974376;28;20309;-90
2020/12/18 12:00:21;;;;;;;15.90;13.83;;;;;;;;;;4975971;28;20551;-90
2020/12/18 12:02:52;;;;;;;16.73;15.33;;;;;;;;;;4974359;28;20179;-90
2020/12/18 12:05:24;;;;;;;13.97;12.57;;;;;;;;;;4975134;28;20168;-90
2020/12/18 12:07:56;;;;;;;10.47;9.67;;;;;;;;;;4974695;28;20213;-89
2020/12/18 12:10:28;;;;;;;12.37;11.17;;;;;;;;;;4974316;28;20573;-90
2020/12/18 12:12:59;;;;;;;13.10;11.23;;;;;;;;;;4975322;28;20545;-90
2020/12/18 12:15:29;;;;;;;12.33;11.23;;;;;;;;;;4975660;28;20245;-90
2020/12/18 12:17:56;;;;;;;10.47;9.47;;;;;;;;;;4975838;28;20155;-89
2020/12/18 12:20:29;;;;;;;10.90;10.03;;;;;;;;;;4974241;28;20539;-89
2020/12/18 12:23:00;;;;;;;9.83;8.87;;;;;;;;;;4974209;28;20266;-89
2020/12/18 12:25:26;;;;;;;9.27;8.33;;;;;;;;;;4975176;28;20184;-89
2020/12/18 12:27:59;;;;;;;11.53;9.10;;;;;;;;;;4974061;28;20550;-90
2020/12/18 12:30:25;;;;;;;14.83;8.37;;;;;;;;;;4975130;28;20205;-89
2020/12/18 12:32:54;;;;;;;9.23;7.40;;;;;;;;;;4975872;28;20171;-89
2020/12/18 12:35:37;;;;;;;8.57;7.80;;;;;;;;;;4977091;28;20567;-89
2020/12/18 12:38:06;;;;;;;9.43;8.50;;;;;;;;;;4976204;28;20210;-88
2020/12/18 12:40:33;;;;;;;9.70;8.90;;;;;;;;;;4975992;28;20174;-89
2020/12/18 12:43:00;;;;;;;10.20;7.97;;;;;;;;;;4974006;28;20179;-89
2020/12/18 12:45:26;;;;;;;9.07;8.13;;;;;;;;;;4973971;28;20187;-89
2020/12/18 12:47:52;;;;;;;11.23;6.90;;;;;;;;;;4975463;28;20182;-89
2020/12/18 12:50:19;;;;;;;11.47;7.37;;;;;;;;;;4975373;28;20222;-89
2020/12/18 12:52:45;;;;;;;9.37;7.63;;;;;;;;;;4973776;28;20199;-89
2020/12/18 12:55:12;;;;;;;8.43;7.13;;;;;;;;;;4973689;28;20175;-89
2020/12/18 12:57:40;;;;;;;11.67;7.30;;;;;;;;;;4975316;28;20590;-89
2020/12/18 13:00:06;;;;;;;7.53;6.93;;;;;;;;;;4974766;28;20247;-89
2020/12/18 13:02:34;;;;;;;8.00;7.30;;;;;;;;;;4973400;28;20181;-90
2020/12/18 13:05:03;;;;;;;10.93;8.20;;;;;;;;;;4974296;28;20547;-90
2020/12/18 13:07:34;;;;;;;7.60;6.90;;;;;;;;;;4974616;28;20284;-90
2020/12/18 13:10:00;;;;;;;10.17;8.03;;;;;;;;;;4973572;28;20721;-90
2020/12/18 13:12:30;;;;;;;11.33;8.23;;;;;;;;;;4973311;28;20698;-90
2020/12/18 13:15:06;;;;;;;10.30;7.00;;;;;;;;;;4973739;28;20241;-90
2020/12/18 13:17:36;;;;;;;7.73;7.00;;;;;;;;;;4973175;28;20583;-90
2020/12/18 13:20:06;;;;;;;8.17;7.33;;;;;;;;;;4973306;28;20179;-90
2020/12/18 13:22:36;;;;;;;10.03;8.10;;;;;;;;;;4974805;28;20175;-90
2020/12/18 13:25:09;;;;;;;8.67;7.87;;;;;;;;;;4974504;28;20598;-90
2020/12/18 13:27:39;;;;;;;8.57;7.77;;;;;;;;;;4974379;28;20695;-90
2020/12/18 13:30:11;;;;;;;10.87;7.90;;;;;;;;;;4973396;28;20198;-90
2020/12/18 13:32:41;;;;;;;8.57;7.73;;;;;;;;;;4974365;28;20175;-89
2020/12/18 13:35:09;;;;;;;8.00;7.30;;;;;;;;;;4974844;28;20163;-88
2020/12/18 13:37:41;;;;;;;8.30;7.60;;;;;;;;;;4973100;28;20226;-89
2020/12/18 13:40:14;;;;;;;7.97;7.27;;;;;;;;;;4973092;28;20175;-90
2020/12/18 13:42:50;;;;;;;12.63;8.17;;;;;;;;;;4974305;28;20206;-90
2020/12/18 13:45:24;;;;;;;8.37;7.67;;;;;;;;;;4973292;28;20230;-90
2020/12/18 13:47:58;;;;;;;8.90;8.00;;;;;;;;;;4973331;28;20214;-90
2020/12/18 13:50:31;;;;;;;8.47;7.70;;;;;;;;;;4973662;28;20204;-90
2020/12/18 13:53:05;;;;;;;8.70;7.90;;;;;;;;;;4972949;28;20197;-90
2020/12/18 13:55:38;;;;;;;12.40;8.00;;;;;;;;;;4973777;28;20166;-90
2020/12/18 13:58:09;;;;;;;9.13;8.33;;;;;;;;;;4974179;28;20170;-90
2020/12/18 14:00:44;;;;;;;9.20;8.30;;;;;;;;;;4973286;28;20175;-89
2020/12/18 14:03:11;;;;;;;9.90;8.90;;;;;;;;;;4974336;28;20162;-90
2020/12/18 14:05:43;;;;;;;9.53;8.63;;;;;;;;;;4973962;28;20187;-90
2020/12/18 14:08:14;;;;;;;10.10;9.27;;;;;;;;;;4973454;28;20189;-90
2020/12/18 14:10:41;;;;;;;9.90;9.03;;;;;;;;;;4972776;28;20246;-90
2020/12/18 14:13:09;;;;;;;10.13;9.20;;;;;;;;;;4972820;28;20217;-89
2020/12/18 14:15:41;;;;;;;11.00;9.20;;;;;;;;;;4972909;28;20645;-90
2020/12/18 14:18:11;;;;;;;10.70;9.70;;;;;;;;;;4977467;28;20261;-89
2020/12/18 14:20:40;;;;;;;10.30;9.00;;;;;;;;;;4977795;28;20182;-90
2020/12/18 14:23:08;;;;;;;11.53;9.30;;;;;;;;;;4976412;28;20182;-89
2020/12/18 14:25:37;;;;;;;9.57;8.77;;;;;;;;;;4976273;28;20186;-89
2020/12/18 14:28:07;;;;;;;11.07;8.57;;;;;;;;;;4976175;28;20183;-90
2020/12/18 14:30:36;;;;;;;9.97;9.23;;;;;;;;;;4976117;28;20202;-89
2020/12/18 14:33:11;;;;;;;9.87;9.17;;;;;;;;;;4976134;28;20187;-89
2020/12/18 14:35:39;;;;;;;10.27;9.37;;;;;;;;;;4976216;28;20611;-89
2020/12/18 14:38:08;;;;;;;9.60;8.90;;;;;;;;;;4976289;28;20652;-89
2020/12/18 14:40:40;;;;;;;10.37;9.27;;;;;;;;;;4976565;28;20179;-89
2020/12/18 14:43:12;;;;;;;12.60;9.90;;;;;;;;;;4977125;28;20189;-90
2020/12/18 14:45:39;;;;;;;13.30;9.27;;;;;;;;;;4975974;28;20198;-89